Time;durP1;ratioP1;P1;durP2;ratioP2;P2;SDS_P1;SDS_P2;PMS_P1;PMS_P2;Temp;Humidity;BMP_temperature;BMP_pressure;BME280_temperature;BME280_humidity;BME280_pressure;Samples;Min_cycle;Max_cycle;Signal;HPM_P1;HPM_P2
2021/01/31 00:02:13;;;;;;;22.73;14.30;;;-0.70;99.90;;;;;;6059416;29;20262;-84
2021/01/31 00:05:16;;;;;;;23.70;13.97;;;-0.80;99.90;;;;;;6046016;29;20239;-83
2021/01/31 00:08:20;;;;;;;22.27;14.10;;;-0.80;99.90;;;;;;6061237;29;20296;-84
2021/01/31 00:11:22;;;;;;;22.57;14.37;;;-0.80;99.90;;;;;;6045719;29;20288;-83
2021/01/31 00:14:24;;;;;;;23.73;14.53;;;-0.80;99.90;;;;;;6045647;29;20352;-83
2021/01/31 00:17:25;;;;;;;29.27;16.77;;;-0.80;99.90;;;;;;6045671;29;20233;-83
2021/01/31 00:20:31;;;;;;;22.73;14.40;;;-0.80;99.90;;;;;;6061802;29;20260;-83
2021/01/31 00:23:33;;;;;;;21.03;13.57;;;-0.80;99.90;;;;;;6046509;29;20277;-83
2021/01/31 00:26:51;;;;;;;22.03;13.07;;;-0.80;99.90;;;;;;6047196;29;20257;-83
2021/01/31 00:29:53;;;;;;;24.53;14.23;;;-0.70;99.90;;;;;;6047199;29;20380;-83
2021/01/31 00:32:55;;;;;;;25.20;15.27;;;-0.70;99.90;;;;;;6048118;29;20546;-83
2021/01/31 00:35:57;;;;;;;22.10;14.20;;;-0.70;99.90;;;;;;6063089;29;20335;-83
2021/01/31 00:39:00;;;;;;;24.93;14.63;;;-0.80;99.90;;;;;;6053760;29;20622;-83
2021/01/31 00:42:02;;;;;;;26.57;14.93;;;-0.80;99.90;;;;;;6059777;29;20240;-86
2021/01/31 00:45:07;;;;;;;20.47;13.07;;;-0.90;99.90;;;;;;6077448;29;20212;-86
2021/01/31 00:48:10;;;;;;;22.73;13.33;;;-0.90;99.90;;;;;;6077420;29;20216;-83
2021/01/31 00:51:12;;;;;;;21.23;13.17;;;-1.00;99.90;;;;;;6077229;29;20201;-83
2021/01/31 00:54:14;;;;;;;23.30;13.60;;;-1.00;99.90;;;;;;6059658;29;20244;-83
2021/01/31 00:57:17;;;;;;;22.73;12.93;;;-1.00;99.90;;;;;;6069064;29;20389;-83
2021/01/31 01:00:34;;;;;;;20.93;13.13;;;-1.00;99.90;;;;;;6070150;29;20737;-83
2021/01/31 01:03:39;;;;;;;20.77;13.20;;;-1.10;99.90;;;;;;6069602;29;20332;-84
2021/01/31 01:06:41;;;;;;;20.87;13.27;;;-1.00;99.90;;;;;;6068476;29;20246;-83
2021/01/31 01:09:42;;;;;;;20.73;12.40;;;-1.10;99.90;;;;;;6062432;29;20247;-84
2021/01/31 01:12:45;;;;;;;21.10;12.67;;;-1.10;99.90;;;;;;6061862;29;20236;-83
2021/01/31 01:15:46;;;;;;;20.03;11.53;;;-1.00;99.90;;;;;;6062459;29;20240;-83
2021/01/31 01:18:48;;;;;;;17.03;11.10;;;-1.00;99.90;;;;;;6046666;29;20248;-84
2021/01/31 01:21:50;;;;;;;17.17;10.97;;;-1.00;99.90;;;;;;6062044;29;20806;-84
2021/01/31 01:24:52;;;;;;;23.13;12.73;;;-1.00;99.90;;;;;;6061118;29;20237;-84
2021/01/31 01:27:55;;;;;;;22.63;11.53;;;-1.00;99.90;;;;;;6061364;29;20236;-84
2021/01/31 01:30:57;;;;;;;19.00;11.33;;;-1.00;99.90;;;;;;6061373;29;20635;-84
2021/01/31 01:33:58;;;;;;;20.90;11.93;;;-1.00;99.90;;;;;;6061949;29;20251;-84
2021/01/31 01:37:00;;;;;;;18.23;11.40;;;-1.00;99.90;;;;;;6063855;29;20244;-84
2021/01/31 01:40:04;;;;;;;18.70;11.30;;;-1.00;99.90;;;;;;6072277;29;20240;-84
2021/01/31 01:43:16;;;;;;;17.70;9.83;;;-1.10;99.90;;;;;;6056434;29;20248;-85
2021/01/31 01:46:18;;;;;;;19.10;10.63;;;-1.10;99.90;;;;;;6057192;29;20790;-84
2021/01/31 01:49:28;;;;;;;17.13;9.67;;;-1.10;99.90;;;;;;6056619;29;20232;-84
2021/01/31 01:52:35;;;;;;;19.80;11.30;;;-1.10;99.90;;;;;;6069890;29;20327;-85
2021/01/31 01:56:11;;;;;;;16.37;9.47;;;-1.20;99.90;;;;;;6056508;29;20669;-84
2021/01/31 01:59:14;;;;;;;16.10;10.17;;;-1.20;99.90;;;;;;6072264;29;20239;-84
2021/01/31 02:02:21;;;;;;;15.57;9.60;;;-1.20;99.90;;;;;;6073029;29;20263;-84
2021/01/31 02:05:24;;;;;;;16.60;10.07;;;-1.10;99.90;;;;;;6073183;29;20259;-84
2021/01/31 02:08:26;;;;;;;15.80;9.83;;;-1.10;99.90;;;;;;6058014;29;20288;-84
2021/01/31 02:11:28;;;;;;;16.20;9.73;;;-1.10;99.90;;;;;;6072216;29;20239;-84
2021/01/31 02:14:32;;;;;;;16.97;9.43;;;-1.10;99.90;;;;;;6074095;29;20228;-85
2021/01/31 02:17:50;;;;;;;15.33;9.93;;;-1.20;99.90;;;;;;6074132;29;20304;-84
2021/01/31 02:21:05;;;;;;;15.17;8.90;;;-1.20;99.90;;;;;;6074624;29;20269;-84
2021/01/31 02:24:15;;;;;;;14.90;8.90;;;-1.20;99.90;;;;;;6072501;29;20236;-84
2021/01/31 02:27:41;;;;;;;15.00;8.87;;;-1.20;99.90;;;;;;6061492;29;20248;-84
2021/01/31 02:30:58;;;;;;;15.07;8.80;;;-1.20;99.90;;;;;;6060925;29;20305;-84
2021/01/31 02:34:15;;;;;;;16.07;8.97;;;-1.20;99.90;;;;;;6060835;29;20652;-84
2021/01/31 02:37:52;;;;;;;13.73;9.57;;;-1.20;99.90;;;;;;6042809;29;20263;-84
2021/01/31 02:41:05;;;;;;;12.27;7.83;;;-1.20;99.90;;;;;;5976397;29;20238;-83
2021/01/31 02:44:12;;;;;;;14.63;8.40;;;-1.20;99.90;;;;;;5951396;29;20251;-84
2021/01/31 02:47:19;;;;;;;13.87;8.63;;;-1.20;99.90;;;;;;5954474;29;20235;-84
2021/01/31 02:50:44;;;;;;;16.07;9.37;;;-1.20;99.90;;;;;;5951566;29;20625;-84
2021/01/31 02:54:03;;;;;;;13.93;8.47;;;-1.10;99.90;;;;;;5951752;29;20251;-83
2021/01/31 02:57:20;;;;;;;15.23;9.17;;;-1.20;99.90;;;;;;6010575;29;21011;-84
2021/01/31 03:00:34;;;;;;;13.60;8.90;;;-1.20;99.90;;;;;;6013071;29;20774;-84
2021/01/31 03:03:43;;;;;;;10.53;7.47;;;-1.20;99.90;;;;;;6011376;29;20723;-84
2021/01/31 03:06:56;;;;;;;15.37;9.37;;;-1.20;99.90;;;;;;6010274;29;20568;-83
2021/01/31 03:10:15;;;;;;;14.70;8.63;;;-1.20;99.90;;;;;;6011113;29;20246;-83
2021/01/31 03:13:29;;;;;;;13.00;7.83;;;-1.20;99.90;;;;;;6012205;29;20244;-79
2021/01/31 03:16:38;;;;;;;12.00;8.27;;;-1.20;99.90;;;;;;6063338;29;20379;-79
2021/01/31 03:19:47;;;;;;;14.60;8.00;;;-1.20;99.90;;;;;;6092008;29;20656;-78
2021/01/31 03:23:08;;;;;;;13.73;8.47;;;-1.20;99.90;;;;;;6092260;29;20246;-79
2021/01/31 03:26:21;;;;;;;11.57;7.43;;;-1.20;99.90;;;;;;6077111;29;20741;-78
2021/01/31 03:29:23;;;;;;;14.80;8.53;;;-1.10;99.90;;;;;;6092982;29;20651;-82
2021/01/31 03:32:37;;;;;;;12.93;8.60;;;-1.10;99.90;;;;;;6073966;29;20239;-83
2021/01/31 03:35:44;;;;;;;13.57;8.53;;;-1.10;99.90;;;;;;6078241;29;20574;-84
2021/01/31 03:38:49;;;;;;;12.80;8.07;;;-1.10;99.90;;;;;;6073573;29;20282;-84
2021/01/31 03:41:51;;;;;;;13.57;8.83;;;-1.10;99.90;;;;;;6088980;29;20238;-84
2021/01/31 03:44:56;;;;;;;13.67;8.33;;;-1.20;99.90;;;;;;6089968;29;20623;-84
2021/01/31 03:48:04;;;;;;;12.53;8.43;;;-1.20;99.90;;;;;;6089364;29;20326;-83
2021/01/31 03:51:06;;;;;;;12.60;6.87;;;-1.20;99.90;;;;;;6088333;29;20259;-83
2021/01/31 03:54:09;;;;;;;15.87;8.53;;;-1.20;99.90;;;;;;6091028;29;20627;-84
2021/01/31 03:57:58;;;;;;;13.77;7.90;;;-1.10;99.90;;;;;;6089148;29;20242;-83
2021/01/31 04:01:03;;;;;;;10.93;6.87;;;-1.20;99.90;;;;;;6070794;29;20591;-83
2021/01/31 04:04:39;;;;;;;11.37;7.30;;;-1.20;99.90;;;;;;6073357;29;20239;-83
2021/01/31 04:07:45;;;;;;;12.77;7.63;;;-1.20;99.90;;;;;;6072553;29;20244;-83
2021/01/31 04:10:47;;;;;;;12.23;7.40;;;-1.20;99.90;;;;;;6089985;29;20540;-83
2021/01/31 04:13:50;;;;;;;12.03;7.63;;;-1.20;99.90;;;;;;6073462;29;20290;-83
2021/01/31 04:16:53;;;;;;;12.43;7.30;;;-1.30;99.90;;;;;;6088443;29;20591;-83
2021/01/31 04:19:55;;;;;;;9.87;6.60;;;-1.20;99.90;;;;;;6089107;29;20246;-83
2021/01/31 04:22:56;;;;;;;12.33;6.87;;;-1.20;99.90;;;;;;6073879;29;20234;-83
2021/01/31 04:25:58;;;;;;;10.47;6.23;;;-1.20;99.90;;;;;;6088579;29;20230;-83
2021/01/31 04:29:01;;;;;;;11.47;6.80;;;-1.20;99.90;;;;;;6088346;29;20238;-83
2021/01/31 04:32:03;;;;;;;9.23;6.00;;;-1.20;99.90;;;;;;6089168;29;20283;-83
2021/01/31 04:35:09;;;;;;;11.07;6.80;;;-1.10;99.90;;;;;;6106272;29;20282;-83
2021/01/31 04:38:11;;;;;;;11.60;6.63;;;-1.10;99.90;;;;;;6086195;29;20310;-83
2021/01/31 04:41:13;;;;;;;10.80;6.33;;;-1.10;99.90;;;;;;6063864;29;20311;-83
2021/01/31 04:44:21;;;;;;;10.10;6.40;;;-1.10;99.90;;;;;;6059252;29;20239;-83
2021/01/31 04:47:28;;;;;;;10.40;6.60;;;-1.20;99.90;;;;;;6074185;29;20232;-83
2021/01/31 04:50:51;;;;;;;9.10;6.60;;;-1.20;99.90;;;;;;6058128;29;20235;-83
2021/01/31 04:54:30;;;;;;;8.97;6.20;;;-1.20;99.90;;;;;;6042637;29;20232;-83
2021/01/31 04:57:45;;;;;;;10.40;6.13;;;-1.20;99.90;;;;;;6059831;29;20702;-83
2021/01/31 05:00:59;;;;;;;9.50;5.87;;;-1.10;99.90;;;;;;6081235;29;20268;-83
2021/01/31 05:04:03;;;;;;;8.73;5.70;;;-1.20;99.90;;;;;;6079972;29;20236;-83
2021/01/31 05:07:06;;;;;;;9.20;5.83;;;-1.20;99.90;;;;;;6081485;29;20315;-83
2021/01/31 05:10:10;;;;;;;12.43;6.70;;;-1.20;99.90;;;;;;6080156;29;20231;-83
2021/01/31 05:13:30;;;;;;;10.50;5.73;;;-1.20;99.90;;;;;;6065301;29;20322;-83
2021/01/31 05:16:32;;;;;;;9.80;6.00;;;-1.20;99.90;;;;;;6065738;29;20299;-83
2021/01/31 05:19:36;;;;;;;9.57;6.00;;;-1.20;99.90;;;;;;6080631;29;20762;-83
2021/01/31 05:22:44;;;;;;;9.70;6.23;;;-1.20;99.90;;;;;;6082024;29;20318;-83
2021/01/31 05:25:47;;;;;;;7.80;5.10;;;-1.30;99.90;;;;;;6064986;29;20231;-83
2021/01/31 05:29:02;;;;;;;8.73;6.07;;;-1.30;99.90;;;;;;6049929;29;20319;-83
2021/01/31 05:32:10;;;;;;;9.10;6.13;;;-1.30;99.90;;;;;;6057201;29;20737;-83
2021/01/31 05:35:22;;;;;;;8.20;5.03;;;-1.20;99.90;;;;;;6076572;29;20237;-83
2021/01/31 05:38:38;;;;;;;6.80;5.00;;;-1.30;99.90;;;;;;6070949;29;20320;-83
2021/01/31 05:41:44;;;;;;;7.80;5.33;;;-1.30;99.90;;;;;;6075501;29;20287;-83
2021/01/31 05:45:01;;;;;;;7.07;4.80;;;-1.20;99.90;;;;;;6092739;29;20264;-83
2021/01/31 05:48:17;;;;;;;5.13;3.23;;;-1.20;99.90;;;;;;6092544;29;20240;-83
2021/01/31 05:51:19;;;;;;;7.63;5.07;;;-1.20;99.90;;;;;;6093432;29;20208;-83
2021/01/31 05:54:41;;;;;;;7.17;4.80;;;-1.20;99.90;;;;;;6094986;29;20239;-83
2021/01/31 05:57:43;;;;;;;6.77;4.10;;;-1.20;99.90;;;;;;6094384;29;20236;-83
2021/01/31 06:00:47;;;;;;;8.60;5.47;;;-1.20;99.90;;;;;;6093766;29;20232;-83
2021/01/31 06:03:49;;;;;;;8.43;4.90;;;-1.20;99.90;;;;;;6095660;29;20235;-82
2021/01/31 06:07:12;;;;;;;7.47;4.73;;;-1.20;99.90;;;;;;6094538;29;20239;-82
2021/01/31 06:10:19;;;;;;;6.23;4.00;;;-1.20;99.90;;;;;;6094733;29;20267;-83
2021/01/31 06:13:22;;;;;;;5.67;3.90;;;-1.20;99.90;;;;;;6095486;29;20235;-83
2021/01/31 06:16:23;;;;;;;8.90;5.20;;;-1.20;99.90;;;;;;6095077;29;20236;-83
2021/01/31 06:19:33;;;;;;;8.53;5.50;;;-1.20;99.90;;;;;;6095412;29;20239;-82
2021/01/31 06:22:38;;;;;;;7.70;5.80;;;-1.20;99.90;;;;;;6096833;29;20325;-83
2021/01/31 06:25:40;;;;;;;7.10;4.73;;;-1.20;99.90;;;;;;6096881;29;20239;-83
2021/01/31 06:28:45;;;;;;;5.67;4.57;;;-1.20;99.90;;;;;;6081487;29;20721;-83
2021/01/31 06:31:58;;;;;;;8.30;5.77;;;-1.20;99.90;;;;;;6096861;29;21076;-83
2021/01/31 06:35:06;;;;;;;7.33;5.77;;;-1.10;99.90;;;;;;6098247;29;20228;-82
2021/01/31 06:38:33;;;;;;;8.80;5.03;;;-1.10;99.90;;;;;;6082277;29;20272;-83
2021/01/31 06:42:07;;;;;;;9.40;5.10;;;-1.10;99.90;;;;;;6082657;29;20240;-83
2021/01/31 06:45:42;;;;;;;6.20;4.77;;;-1.10;99.90;;;;;;6056710;29;20219;-83
2021/01/31 06:49:12;;;;;;;7.27;5.13;;;-1.10;99.90;;;;;;6057198;29;20706;-83
2021/01/31 06:52:29;;;;;;;6.87;5.30;;;-1.00;99.90;;;;;;6074659;29;20811;-82
2021/01/31 06:55:56;;;;;;;7.40;5.03;;;-1.00;99.90;;;;;;6074711;29;20232;-82
2021/01/31 06:59:13;;;;;;;7.70;5.20;;;-0.90;99.90;;;;;;6060147;29;20327;-82
2021/01/31 07:02:27;;;;;;;7.13;5.10;;;-0.90;99.90;;;;;;6060126;29;20264;-82
2021/01/31 07:05:58;;;;;;;7.70;5.10;;;-0.90;99.90;;;;;;6065288;29;20327;-82
2021/01/31 07:09:10;;;;;;;9.33;5.50;;;-0.80;99.90;;;;;;6075596;29;20337;-82
2021/01/31 07:12:21;;;;;;;10.43;5.90;;;-0.70;99.90;;;;;;6076361;29;20750;-82
2021/01/31 07:15:23;;;;;;;8.63;5.63;;;-0.70;99.90;;;;;;6077124;29;20345;-83
2021/01/31 07:18:29;;;;;;;6.60;4.53;;;-0.70;99.90;;;;;;6075651;29;20673;-82
2021/01/31 07:21:38;;;;;;;6.40;4.77;;;-0.60;99.90;;;;;;6060634;29;20829;-82
2021/01/31 07:24:52;;;;;;;7.37;5.03;;;-0.60;99.90;;;;;;6077021;29;20656;-82
2021/01/31 07:28:06;;;;;;;9.10;6.13;;;-0.50;99.90;;;;;;6076204;29;20635;-83
2021/01/31 07:31:31;;;;;;;7.73;5.07;;;-0.50;99.90;;;;;;6060881;29;20721;-83
2021/01/31 07:34:42;;;;;;;7.87;4.83;;;-0.50;99.90;;;;;;6078564;29;20236;-82
2021/01/31 07:37:48;;;;;;;8.50;5.50;;;-0.50;99.90;;;;;;6070069;29;20641;-82
2021/01/31 07:40:54;;;;;;;7.07;4.80;;;-0.40;99.90;;;;;;6032881;29;20816;-83
2021/01/31 07:44:05;;;;;;;7.23;4.80;;;-0.40;99.90;;;;;;6010648;29;20332;-83
2021/01/31 07:47:07;;;;;;;7.03;5.00;;;-0.30;99.90;;;;;;6024375;29;20242;-83
2021/01/31 07:50:12;;;;;;;7.40;5.53;;;-0.20;99.90;;;;;;6024286;29;20233;-83
2021/01/31 07:53:27;;;;;;;6.70;4.80;;;-0.10;99.90;;;;;;6023623;29;20257;-82
2021/01/31 07:56:35;;;;;;;9.00;5.10;;;0.10;99.90;;;;;;6009755;29;20319;-83
2021/01/31 07:59:38;;;;;;;8.23;6.13;;;0.20;99.90;;;;;;6010961;29;20246;-82
2021/01/31 08:02:45;;;;;;;9.77;6.13;;;0.20;99.90;;;;;;6026030;29;20704;-82
2021/01/31 08:05:57;;;;;;;9.97;6.33;;;0.10;99.90;;;;;;6025700;29;20652;-83
2021/01/31 08:08:59;;;;;;;9.53;6.03;;;0.10;99.90;;;;;;6026697;29;20234;-82
2021/01/31 08:12:07;;;;;;;9.13;6.03;;;0.00;99.90;;;;;;6012416;29;20313;-87
2021/01/31 08:15:30;;;;;;;9.90;6.77;;;-0.10;99.90;;;;;;6009735;29;20210;-83
2021/01/31 08:19:22;;;;;;;8.67;6.50;;;-0.20;99.90;;;;;;6007529;29;20608;-82
2021/01/31 08:22:34;;;;;;;8.77;6.30;;;-0.30;99.90;;;;;;6004250;29;20444;-83
2021/01/31 08:26:00;;;;;;;9.23;6.17;;;-0.30;99.90;;;;;;5998173;29;20651;-82
2021/01/31 08:29:01;;;;;;;10.00;6.40;;;-0.30;99.90;;;;;;5997663;29;20266;-82
2021/01/31 08:32:10;;;;;;;10.57;6.87;;;-0.30;99.90;;;;;;5997079;29;20779;-82
2021/01/31 08:35:20;;;;;;;9.03;6.47;;;-0.20;99.90;;;;;;6013063;29;20226;-82
2021/01/31 08:38:34;;;;;;;9.23;6.20;;;-0.10;99.90;;;;;;6059407;29;20442;-82
2021/01/31 08:41:40;;;;;;;10.63;6.97;;;-0.10;99.90;;;;;;6066328;29;20781;-82
2021/01/31 08:44:52;;;;;;;10.87;7.30;;;-0.10;99.90;;;;;;6065321;29;20236;-81
2021/01/31 08:47:54;;;;;;;11.27;7.17;;;-0.10;99.90;;;;;;6065379;29;20248;-81
2021/01/31 08:51:23;;;;;;;10.47;6.50;;;-0.10;99.90;;;;;;6050800;29;20262;-82
2021/01/31 08:54:26;;;;;;;11.70;6.93;;;-0.20;99.90;;;;;;6065007;29;20246;-82
2021/01/31 08:57:29;;;;;;;12.37;8.40;;;-0.10;99.90;;;;;;6065719;29;20240;-82
2021/01/31 09:00:31;;;;;;;10.83;7.50;;;-0.10;99.90;;;;;;6065286;29;20254;-82
2021/01/31 09:03:34;;;;;;;10.53;7.17;;;0.10;99.90;;;;;;6054958;29;20232;-82
2021/01/31 09:06:38;;;;;;;10.97;7.03;;;0.20;99.90;;;;;;6067370;29;20231;-83
2021/01/31 09:09:52;;;;;;;10.50;6.90;;;0.40;99.90;;;;;;6068311;29;20235;-83
2021/01/31 09:13:16;;;;;;;11.93;7.73;;;0.60;99.90;;;;;;6068857;29;20240;-83
2021/01/31 09:16:17;;;;;;;11.50;7.37;;;0.70;99.90;;;;;;6053825;29;20761;-82
2021/01/31 09:19:22;;;;;;;10.60;7.40;;;0.60;99.90;;;;;;6053472;29;20244;-83
2021/01/31 09:22:25;;;;;;;12.00;7.70;;;0.60;99.90;;;;;;6068476;29;20307;-83
2021/01/31 09:25:32;;;;;;;10.03;7.20;;;0.60;99.90;;;;;;6069037;29;20318;-83
2021/01/31 09:28:39;;;;;;;10.90;7.33;;;0.60;99.90;;;;;;6068153;29;20710;-83
2021/01/31 09:31:42;;;;;;;9.20;7.40;;;0.80;99.90;;;;;;6086438;29;20327;-83
2021/01/31 09:34:45;;;;;;;17.57;11.00;;;0.90;99.90;;;;;;6052840;29;20812;-83
2021/01/31 09:37:47;;;;;;;13.30;8.17;;;0.90;99.90;;;;;;6068822;29;20243;-83
2021/01/31 09:40:50;;;;;;;10.17;7.27;;;0.90;99.90;;;;;;6052960;29;20281;-83
2021/01/31 09:44:02;;;;;;;12.33;7.83;;;0.90;99.90;;;;;;6053859;29;20368;-84
2021/01/31 09:47:05;;;;;;;9.83;7.37;;;1.10;99.90;;;;;;6071702;29;20306;-84
2021/01/31 09:50:12;;;;;;;11.43;7.93;;;1.20;99.90;;;;;;6084630;29;20713;-84
2021/01/31 09:53:29;;;;;;;11.23;7.47;;;1.20;99.90;;;;;;6053000;29;20239;-84
2021/01/31 09:56:45;;;;;;;12.37;7.60;;;1.30;99.90;;;;;;6067911;29;20610;-84
2021/01/31 09:59:48;;;;;;;12.50;8.20;;;1.50;99.90;;;;;;6070022;29;20291;-84
2021/01/31 10:03:12;;;;;;;11.27;7.70;;;1.60;99.90;;;;;;6071504;29;20242;-83
2021/01/31 10:06:17;;;;;;;13.73;8.33;;;1.60;99.90;;;;;;6087798;29;20725;-84
2021/01/31 10:09:31;;;;;;;13.33;8.17;;;1.70;99.90;;;;;;6067634;29;20709;-84
2021/01/31 10:12:34;;;;;;;12.50;8.10;;;1.80;99.90;;;;;;6068392;29;20243;-84
2021/01/31 10:15:41;;;;;;;11.83;8.23;;;1.80;99.90;;;;;;6053023;29;20286;-83
2021/01/31 10:18:43;;;;;;;11.77;8.00;;;1.90;99.90;;;;;;6052477;29;20465;-83
2021/01/31 10:21:56;;;;;;;14.27;9.03;;;1.90;99.90;;;;;;6082781;29;20406;-83
2021/01/31 10:24:59;;;;;;;12.67;7.70;;;1.90;99.90;;;;;;6083334;29;20260;-83
2021/01/31 10:28:00;;;;;;;12.67;8.47;;;2.00;99.90;;;;;;6084027;29;20311;-83
2021/01/31 10:31:03;;;;;;;13.33;8.43;;;2.10;99.90;;;;;;6066963;29;20238;-83
2021/01/31 10:34:07;;;;;;;17.90;8.53;;;2.20;99.90;;;;;;6067349;29;20224;-83
2021/01/31 10:37:37;;;;;;;13.87;8.73;;;2.30;99.90;;;;;;6066785;29;20307;-83
2021/01/31 10:40:39;;;;;;;15.90;9.10;;;2.30;99.90;;;;;;6084430;29;20586;-85
2021/01/31 10:43:43;;;;;;;12.57;8.70;;;2.30;99.90;;;;;;6067407;29;20239;-84
2021/01/31 10:46:44;;;;;;;16.73;14.10;;;2.40;99.90;;;;;;6082941;29;20310;-84
2021/01/31 10:49:46;;;;;;;13.83;8.80;;;2.40;99.90;;;;;;6083202;29;20330;-84
2021/01/31 10:52:48;;;;;;;14.07;9.27;;;2.30;99.90;;;;;;6082249;29;20241;-84
2021/01/31 10:55:50;;;;;;;16.57;9.23;;;2.10;99.90;;;;;;6080996;29;20671;-83
2021/01/31 10:58:52;;;;;;;12.93;8.60;;;1.90;99.90;;;;;;6066745;29;20306;-82
2021/01/31 11:01:54;;;;;;;15.10;9.37;;;2.00;99.90;;;;;;6051000;29;20232;-84
2021/01/31 11:04:56;;;;;;;13.33;9.03;;;2.00;99.90;;;;;;6067318;29;20240;-83
2021/01/31 11:07:58;;;;;;;15.70;9.07;;;2.10;99.90;;;;;;6066211;29;20618;-83
2021/01/31 11:11:00;;;;;;;12.87;8.10;;;2.10;99.90;;;;;;6066850;29;20314;-84
2021/01/31 11:14:02;;;;;;;13.00;8.70;;;2.10;99.90;;;;;;6066099;29;20617;-83
2021/01/31 11:17:04;;;;;;;15.53;8.87;;;2.20;99.90;;;;;;6069325;29;20706;-83
2021/01/31 11:20:07;;;;;;;14.10;9.17;;;2.20;99.90;;;;;;6067811;29;20663;-83
2021/01/31 11:23:09;;;;;;;13.87;9.60;;;2.30;99.90;;;;;;6068594;29;20779;-83
2021/01/31 11:26:11;;;;;;;15.47;9.33;;;2.40;99.90;;;;;;6068831;29;20318;-83
2021/01/31 11:29:13;;;;;;;13.63;8.70;;;2.20;99.90;;;;;;6069243;29;20260;-83
2021/01/31 11:32:16;;;;;;;13.97;8.60;;;2.10;99.90;;;;;;6071896;29;20242;-83
2021/01/31 11:35:18;;;;;;;15.00;9.70;;;2.10;99.90;;;;;;6074153;29;20251;-83
2021/01/31 11:38:20;;;;;;;13.17;8.30;;;2.20;99.90;;;;;;6063586;29;20730;-83
2021/01/31 11:41:22;;;;;;;13.90;8.97;;;2.30;99.90;;;;;;6028827;29;20257;-83
2021/01/31 11:44:24;;;;;;;14.73;9.50;;;2.30;99.90;;;;;;6043826;29;20275;-83
2021/01/31 11:47:26;;;;;;;19.23;11.10;;;2.30;99.90;;;;;;6043762;29;20743;-83
2021/01/31 11:50:28;;;;;;;16.03;9.77;;;2.20;99.90;;;;;;6044698;29;20225;-83
2021/01/31 11:53:32;;;;;;;15.00;9.73;;;2.00;99.90;;;;;;6034855;29;20240;-83
2021/01/31 11:56:35;;;;;;;40.43;11.27;;;2.00;99.90;;;;;;6045717;29;20305;-83
2021/01/31 11:59:42;;;;;;;16.50;9.83;;;2.00;99.90;;;;;;6045224;29;20233;-83
2021/01/31 12:02:44;;;;;;;13.40;9.07;;;1.90;99.90;;;;;;6045556;29;20241;-83
2021/01/31 12:05:46;;;;;;;14.87;8.33;;;1.80;99.90;;;;;;6031213;29;20237;-83
2021/01/31 12:08:47;;;;;;;15.50;9.43;;;1.80;99.90;;;;;;6047024;29;20353;-83
2021/01/31 12:11:49;;;;;;;16.60;10.00;;;1.80;99.90;;;;;;6037874;29;20234;-83
2021/01/31 12:14:51;;;;;;;16.57;9.00;;;1.90;99.90;;;;;;6045896;29;20248;-83
2021/01/31 12:17:53;;;;;;;18.13;9.07;;;1.90;99.90;;;;;;6038165;29;20477;-83
2021/01/31 12:20:55;;;;;;;16.07;9.47;;;2.10;99.90;;;;;;6026366;29;20332;-83
2021/01/31 12:23:56;;;;;;;16.47;9.43;;;2.20;99.90;;;;;;6035189;29;20233;-82
2021/01/31 12:27:01;;;;;;;14.47;9.13;;;2.40;99.90;;;;;;6034673;29;20240;-82
2021/01/31 12:30:03;;;;;;;15.00;9.60;;;2.70;99.90;;;;;;6030304;29;20229;-83
2021/01/31 12:33:05;;;;;;;16.40;9.73;;;2.80;99.00;;;;;;6048204;29;20244;-84
2021/01/31 12:36:08;;;;;;;15.77;9.70;;;2.80;99.10;;;;;;6042555;29;20236;-83
2021/01/31 12:39:10;;;;;;;14.37;9.00;;;2.60;99.40;;;;;;6093709;29;20235;-83
2021/01/31 12:42:12;;;;;;;15.80;9.50;;;2.60;99.90;;;;;;6083027;29;20275;-83
2021/01/31 12:45:16;;;;;;;16.83;8.93;;;2.60;99.90;;;;;;6072968;29;20997;-83
2021/01/31 12:48:18;;;;;;;14.17;9.00;;;2.60;99.70;;;;;;6070305;29;20231;-83
2021/01/31 12:51:20;;;;;;;13.93;8.70;;;2.60;99.90;;;;;;6082034;29;20223;-83
2021/01/31 12:54:23;;;;;;;15.67;9.90;;;2.60;99.80;;;;;;6094604;29;20715;-82
2021/01/31 12:57:25;;;;;;;13.37;8.70;;;2.80;99.90;;;;;;6077082;29;20242;-82
2021/01/31 13:00:27;;;;;;;14.93;9.50;;;3.10;99.90;;;;;;6092732;29;20257;-83
2021/01/31 13:03:29;;;;;;;14.40;9.43;;;3.30;99.10;;;;;;6079369;29;20724;-83
2021/01/31 13:06:31;;;;;;;14.63;9.33;;;3.40;98.70;;;;;;6085042;29;20274;-83
2021/01/31 13:09:33;;;;;;;13.53;9.20;;;3.20;98.30;;;;;;6085529;29;20274;-83
2021/01/31 13:12:36;;;;;;;13.77;8.60;;;3.30;99.00;;;;;;6101588;29;20646;-83
2021/01/31 13:15:37;;;;;;;14.63;9.10;;;3.30;98.60;;;;;;6086173;29;20653;-84
2021/01/31 13:18:40;;;;;;;13.93;8.33;;;3.20;99.20;;;;;;6100081;29;20227;-83
2021/01/31 13:21:41;;;;;;;14.67;8.67;;;3.00;98.60;;;;;;6086741;29;20760;-83
2021/01/31 13:24:44;;;;;;;12.57;7.77;;;3.00;99.90;;;;;;6086281;29;20227;-83
2021/01/31 13:27:46;;;;;;;12.10;7.83;;;2.90;99.50;;;;;;6095507;29;20772;-83
2021/01/31 13:30:48;;;;;;;13.50;8.43;;;2.90;99.90;;;;;;6064925;29;20238;-83
2021/01/31 13:33:50;;;;;;;12.73;8.33;;;2.90;99.90;;;;;;6079174;29;20260;-83
2021/01/31 13:36:52;;;;;;;12.63;9.30;;;2.90;99.90;;;;;;6056649;29;20249;-83
2021/01/31 13:39:54;;;;;;;13.50;9.03;;;2.90;99.90;;;;;;6071762;29;20240;-83
2021/01/31 13:42:56;;;;;;;13.97;8.73;;;3.00;99.90;;;;;;6057161;29;20692;-83
2021/01/31 13:45:58;;;;;;;12.47;8.40;;;3.00;99.90;;;;;;6057637;29;20350;-83
2021/01/31 13:49:00;;;;;;;14.20;8.90;;;3.00;99.90;;;;;;6056893;29;20232;-83
2021/01/31 13:52:01;;;;;;;13.87;8.53;;;2.90;99.90;;;;;;6040030;29;20240;-83
2021/01/31 13:55:04;;;;;;;16.30;9.13;;;2.60;99.90;;;;;;6027637;29;20234;-83
2021/01/31 13:58:06;;;;;;;15.00;8.57;;;2.50;99.90;;;;;;6028089;29;20266;-83
2021/01/31 14:01:08;;;;;;;12.43;8.03;;;2.50;99.90;;;;;;6029288;29;20297;-83
2021/01/31 14:04:10;;;;;;;10.93;7.50;;;2.60;99.90;;;;;;6028760;29;20244;-83
2021/01/31 14:07:12;;;;;;;15.30;8.03;;;2.50;99.90;;;;;;6028786;29;20271;-83
2021/01/31 14:10:17;;;;;;;12.80;8.40;;;2.40;99.90;;;;;;6029328;29;20297;-83
2021/01/31 14:13:19;;;;;;;16.93;9.70;;;2.30;99.90;;;;;;6017864;29;20296;-83
2021/01/31 14:16:21;;;;;;;15.00;9.10;;;2.30;99.90;;;;;;5999877;29;20241;-82
2021/01/31 14:19:24;;;;;;;15.23;9.13;;;2.30;99.90;;;;;;6015340;29;20697;-83
2021/01/31 14:22:26;;;;;;;16.60;8.67;;;2.30;99.90;;;;;;6030142;29;20300;-83
2021/01/31 14:25:29;;;;;;;12.17;8.37;;;2.40;99.90;;;;;;6014104;29;20240;-83
2021/01/31 14:28:31;;;;;;;15.43;9.20;;;2.30;99.90;;;;;;6017168;29;20720;-83
2021/01/31 14:31:33;;;;;;;14.97;9.10;;;2.20;99.90;;;;;;6060068;29;20239;-83
2021/01/31 14:34:53;;;;;;;15.87;9.00;;;2.20;99.90;;;;;;6059826;29;20241;-83
2021/01/31 14:37:56;;;;;;;15.33;9.53;;;2.10;99.90;;;;;;6061794;29;20318;-83
2021/01/31 14:40:57;;;;;;;14.87;8.77;;;2.20;99.90;;;;;;6082438;29;20232;-83
2021/01/31 14:43:59;;;;;;;12.80;8.07;;;2.10;99.90;;;;;;6083282;29;20760;-83
2021/01/31 14:47:01;;;;;;;13.70;9.60;;;2.20;99.90;;;;;;6066435;29;20298;-83
2021/01/31 14:50:04;;;;;;;13.47;8.63;;;2.20;99.90;;;;;;6082461;29;20235;-83
2021/01/31 14:53:06;;;;;;;12.77;7.80;;;2.10;99.90;;;;;;6082926;29;20238;-83
2021/01/31 14:56:09;;;;;;;12.73;8.87;;;2.10;99.90;;;;;;6082848;29;20392;-83
2021/01/31 14:59:12;;;;;;;14.10;8.60;;;2.10;99.90;;;;;;6066764;29;20232;-83
2021/01/31 15:02:14;;;;;;;13.13;9.40;;;2.10;99.90;;;;;;6081828;29;20322;-83
2021/01/31 15:05:16;;;;;;;14.50;9.77;;;2.10;99.90;;;;;;6067453;29;20785;-83
2021/01/31 15:08:18;;;;;;;14.70;9.47;;;2.10;99.90;;;;;;6083259;29;20330;-83
2021/01/31 15:11:20;;;;;;;14.43;8.53;;;2.00;99.90;;;;;;6066779;29;20231;-83
2021/01/31 15:14:22;;;;;;;16.77;9.37;;;1.90;99.90;;;;;;6082049;29;20228;-83
2021/01/31 15:17:24;;;;;;;14.57;8.93;;;1.80;99.90;;;;;;6081954;29;20248;-83
2021/01/31 15:20:29;;;;;;;15.17;9.60;;;1.80;99.90;;;;;;6066880;29;20245;-83
2021/01/31 15:23:31;;;;;;;15.87;9.73;;;1.80;99.90;;;;;;6082265;29;20256;-83
2021/01/31 15:26:33;;;;;;;15.80;9.87;;;1.70;99.90;;;;;;6066028;29;20242;-83
2021/01/31 15:29:35;;;;;;;16.17;9.00;;;1.70;99.90;;;;;;6066661;29;20275;-83
2021/01/31 15:32:38;;;;;;;14.07;9.43;;;1.60;99.90;;;;;;6081658;29;20732;-83
2021/01/31 15:35:39;;;;;;;15.13;8.93;;;1.50;99.90;;;;;;6081245;29;20595;-83
2021/01/31 15:38:42;;;;;;;13.47;8.90;;;1.50;99.90;;;;;;6082897;29;20721;-83
2021/01/31 15:41:44;;;;;;;12.67;7.97;;;1.40;99.90;;;;;;6066304;29;20950;-83
2021/01/31 15:44:46;;;;;;;11.43;7.87;;;1.40;99.90;;;;;;6051050;29;20701;-83
2021/01/31 15:47:52;;;;;;;10.00;7.03;;;1.40;99.90;;;;;;6065664;29;20246;-83
2021/01/31 15:50:54;;;;;;;11.53;7.77;;;1.40;99.90;;;;;;6066015;29;20235;-83
2021/01/31 15:53:55;;;;;;;13.00;8.07;;;1.40;99.90;;;;;;6050844;29;20330;-83
2021/01/31 15:56:57;;;;;;;14.63;7.73;;;1.30;99.90;;;;;;6066860;29;20250;-83
2021/01/31 15:59:59;;;;;;;15.20;8.37;;;1.30;99.90;;;;;;6068402;29;20270;-83
2021/01/31 16:03:03;;;;;;;15.20;8.83;;;1.30;99.90;;;;;;6066312;29;20224;-84
2021/01/31 16:06:05;;;;;;;13.87;8.20;;;1.20;99.90;;;;;;6065815;29;20683;-83
2021/01/31 16:09:07;;;;;;;11.87;7.43;;;1.20;99.90;;;;;;6064960;29;20327;-84